Time;durP1;ratioP1;P1;durP2;ratioP2;P2;SDS_P1;SDS_P2;PMS_P1;PMS_P2;Temp;Humidity;BMP_temperature;BMP_pressure;BME280_temperature;BME280_humidity;BME280_pressure;Samples;Min_cycle;Max_cycle;Signal;HPM_P1;HPM_P2
2023/09/15 00:01:18;;;;;;;0.10;0.10;;;;;;;;;;5105135;28;20549;-41
2023/09/15 00:03:44;;;;;;;0.10;0.10;;;;;;;;;;5104005;28;20054;-42
2023/09/15 00:06:10;;;;;;;0.10;0.10;;;;;;;;;;5104193;28;20047;-43
2023/09/15 00:08:36;;;;;;;0.10;0.10;;;;;;;;;;5104057;28;20097;-42
2023/09/15 00:11:01;;;;;;;0.10;0.10;;;;;;;;;;5090350;27;20048;-43
2023/09/15 00:13:27;;;;;;;0.10;0.10;;;;;;;;;;5103790;28;20059;-45
2023/09/15 00:15:52;;;;;;;0.10;0.10;;;;;;;;;;5104926;28;20054;-42
2023/09/15 00:18:18;;;;;;;0.10;0.10;;;;;;;;;;5104405;28;20138;-43
2023/09/15 00:20:44;;;;;;;0.10;0.10;;;;;;;;;;5104024;28;20055;-42
2023/09/15 00:23:10;;;;;;;0.10;0.10;;;;;;;;;;5106061;28;20516;-43
2023/09/15 00:25:35;;;;;;;0.10;0.10;;;;;;;;;;5107820;28;20126;-42
2023/09/15 00:28:02;;;;;;;0.10;0.10;;;;;;;;;;5107133;28;20083;-42
2023/09/15 00:30:28;;;;;;;0.10;0.10;;;;;;;;;;5093993;28;20134;-42
2023/09/15 00:32:54;;;;;;;0.10;0.10;;;;;;;;;;5096967;28;20051;-43
2023/09/15 00:35:21;;;;;;;0.10;0.10;;;;;;;;;;5105085;28;20156;-42
2023/09/15 00:37:47;;;;;;;0.10;0.10;;;;;;;;;;5103280;28;20048;-42
2023/09/15 00:40:14;;;;;;;0.10;0.10;;;;;;;;;;5105486;28;20473;-42
2023/09/15 00:42:41;;;;;;;0.10;0.10;;;;;;;;;;5106534;28;20545;-42
2023/09/15 00:45:13;;;;;;;0.10;0.10;;;;;;;;;;5089164;28;20381;-42
2023/09/15 00:47:38;;;;;;;0.10;0.10;;;;;;;;;;5107580;28;20063;-42
2023/09/15 00:50:05;;;;;;;0.10;0.10;;;;;;;;;;5107300;28;20048;-42
2023/09/15 00:52:33;;;;;;;0.10;0.10;;;;;;;;;;5106755;28;20076;-42
2023/09/15 00:54:59;;;;;;;0.10;0.10;;;;;;;;;;5106804;28;20396;-42
2023/09/15 00:57:26;;;;;;;0.10;0.10;;;;;;;;;;5107036;28;20047;-42
2023/09/15 00:59:52;;;;;;;0.10;0.10;;;;;;;;;;5105825;28;20104;-42
2023/09/15 01:02:18;;;;;;;0.10;0.10;;;;;;;;;;5105645;28;20039;-43
2023/09/15 01:04:44;;;;;;;0.10;0.10;;;;;;;;;;5106266;28;20055;-43
2023/09/15 01:07:10;;;;;;;0.10;0.10;;;;;;;;;;5106604;28;20074;-43
2023/09/15 01:09:36;;;;;;;0.10;0.10;;;;;;;;;;5106937;28;20044;-42
2023/09/15 01:12:04;;;;;;;0.10;0.10;;;;;;;;;;5105074;28;20063;-42
2023/09/15 01:14:30;;;;;;;0.20;0.20;;;;;;;;;;5106607;28;20071;-43
2023/09/15 01:17:01;;;;;;;0.10;0.10;;;;;;;;;;5106481;28;20054;-42
2023/09/15 01:19:35;;;;;;;0.10;0.10;;;;;;;;;;5105186;28;20281;-42
2023/09/15 01:22:15;;;;;;;0.10;0.10;;;;;;;;;;5105983;28;20052;-45
2023/09/15 01:25:01;;;;;;;0.10;0.10;;;;;;;;;;5087994;28;20043;-43
2023/09/15 01:27:37;;;;;;;0.10;0.10;;;;;;;;;;5090748;28;20399;-43
2023/09/15 01:30:04;;;;;;;0.10;0.10;;;;;;;;;;5106642;28;20075;-43
2023/09/15 01:32:33;;;;;;;0.10;0.10;;;;;;;;;;5105454;28;20078;-42
2023/09/15 01:35:01;;;;;;;0.10;0.10;;;;;;;;;;5104712;28;20059;-42
2023/09/15 01:37:27;;;;;;;0.10;0.10;;;;;;;;;;5104218;28;20504;-43
2023/09/15 01:39:52;;;;;;;0.10;0.10;;;;;;;;;;5099920;28;20044;-42
2023/09/15 01:42:18;;;;;;;0.10;0.10;;;;;;;;;;5104742;28;20138;-42
2023/09/15 01:44:44;;;;;;;0.10;0.10;;;;;;;;;;5106152;28;20060;-42
2023/09/15 01:47:11;;;;;;;0.10;0.10;;;;;;;;;;5106913;28;20064;-42
2023/09/15 01:49:38;;;;;;;0.17;0.17;;;;;;;;;;5105774;28;20051;-42
2023/09/15 01:52:04;;;;;;;0.10;0.10;;;;;;;;;;5105104;28;20093;-42
2023/09/15 01:54:30;;;;;;;0.10;0.10;;;;;;;;;;5106596;28;20500;-43
2023/09/15 01:56:55;;;;;;;0.10;0.10;;;;;;;;;;5106779;28;20575;-42
2023/09/15 01:59:21;;;;;;;0.10;0.10;;;;;;;;;;5105490;28;20531;-42
2023/09/15 02:01:47;;;;;;;0.10;0.10;;;;;;;;;;5105513;28;20408;-42
2023/09/15 02:04:12;;;;;;;0.10;0.10;;;;;;;;;;5105219;28;20105;-43
2023/09/15 02:06:38;;;;;;;0.20;0.20;;;;;;;;;;5106552;28;20584;-42
2023/09/15 02:09:05;;;;;;;0.10;0.10;;;;;;;;;;5097965;28;20047;-43
2023/09/15 02:11:30;;;;;;;0.10;0.10;;;;;;;;;;5107402;28;20040;-43
2023/09/15 02:13:56;;;;;;;0.10;0.10;;;;;;;;;;5106337;28;20081;-42
2023/09/15 02:16:21;;;;;;;0.10;0.10;;;;;;;;;;5106337;28;20044;-42
2023/09/15 02:18:47;;;;;;;0.10;0.10;;;;;;;;;;5097748;28;20050;-43
2023/09/15 02:21:13;;;;;;;0.10;0.10;;;;;;;;;;5105748;28;20116;-42
2023/09/15 02:23:39;;;;;;;0.20;0.20;;;;;;;;;;5104624;28;20052;-43
2023/09/15 02:26:04;;;;;;;0.10;0.10;;;;;;;;;;5105841;28;20048;-42
2023/09/15 02:28:31;;;;;;;0.10;0.10;;;;;;;;;;5097144;28;20052;-41
2023/09/15 02:30:57;;;;;;;0.10;0.10;;;;;;;;;;5105909;28;20484;-42
2023/09/15 02:33:23;;;;;;;0.10;0.10;;;;;;;;;;5105009;28;20155;-42
2023/09/15 02:35:49;;;;;;;0.10;0.10;;;;;;;;;;5104608;28;20059;-42
2023/09/15 02:38:14;;;;;;;0.10;0.10;;;;;;;;;;5099822;28;20051;-43
2023/09/15 02:40:42;;;;;;;0.10;0.10;;;;;;;;;;5104859;28;20043;-43
2023/09/15 02:43:09;;;;;;;0.10;0.10;;;;;;;;;;5104791;28;20097;-43
2023/09/15 02:45:35;;;;;;;0.10;0.10;;;;;;;;;;5105059;28;20043;-42
2023/09/15 02:48:02;;;;;;;0.10;0.10;;;;;;;;;;5105712;28;20441;-42
2023/09/15 02:50:28;;;;;;;0.10;0.10;;;;;;;;;;5106059;28;20081;-43
2023/09/15 02:52:54;;;;;;;0.10;0.10;;;;;;;;;;5104523;28;20039;-43
2023/09/15 02:55:19;;;;;;;0.10;0.10;;;;;;;;;;5106445;28;20445;-42
2023/09/15 02:57:45;;;;;;;0.10;0.10;;;;;;;;;;5105808;28;20040;-43
2023/09/15 03:00:13;;;;;;;0.10;0.10;;;;;;;;;;5105189;28;20404;-42
2023/09/15 03:02:40;;;;;;;0.10;0.10;;;;;;;;;;5104731;28;20044;-43
2023/09/15 03:05:06;;;;;;;0.10;0.10;;;;;;;;;;5104876;28;20547;-42
2023/09/15 03:07:32;;;;;;;0.10;0.10;;;;;;;;;;5105565;28;20355;-42
2023/09/15 03:09:58;;;;;;;0.10;0.10;;;;;;;;;;5110574;28;20100;-42
2023/09/15 03:12:24;;;;;;;0.10;0.10;;;;;;;;;;5104625;28;20063;-41
2023/09/15 03:14:50;;;;;;;0.10;0.10;;;;;;;;;;5105175;28;20135;-42
2023/09/15 03:17:17;;;;;;;0.10;0.10;;;;;;;;;;5105505;28;20518;-42
2023/09/15 03:19:42;;;;;;;0.10;0.10;;;;;;;;;;5094982;28;20510;-42
2023/09/15 03:22:08;;;;;;;0.10;0.10;;;;;;;;;;5104860;28;20039;-42
2023/09/15 03:24:36;;;;;;;0.10;0.10;;;;;;;;;;5104901;28;20484;-42
2023/09/15 03:27:02;;;;;;;0.10;0.10;;;;;;;;;;5105555;28;20050;-43
2023/09/15 03:29:27;;;;;;;0.10;0.10;;;;;;;;;;5104060;28;20143;-41
2023/09/15 03:31:54;;;;;;;0.10;0.10;;;;;;;;;;5104970;28;20074;-42
2023/09/15 03:34:20;;;;;;;0.10;0.10;;;;;;;;;;5104575;28;20461;-42
2023/09/15 03:36:45;;;;;;;0.10;0.10;;;;;;;;;;5105347;28;20147;-44
2023/09/15 03:39:11;;;;;;;0.20;0.20;;;;;;;;;;5103382;28;20048;-44
2023/09/15 03:41:37;;;;;;;0.10;0.10;;;;;;;;;;5103267;28;20530;-41
2023/09/15 03:44:04;;;;;;;0.17;0.17;;;;;;;;;;5104820;28;20070;-42
2023/09/15 03:46:30;;;;;;;0.10;0.10;;;;;;;;;;5104571;28;20449;-42
2023/09/15 03:48:56;;;;;;;0.10;0.10;;;;;;;;;;5092986;28;20066;-44
2023/09/15 03:51:22;;;;;;;0.10;0.10;;;;;;;;;;5104674;28;20063;-42
2023/09/15 03:53:48;;;;;;;0.10;0.10;;;;;;;;;;5103663;28;20347;-41
2023/09/15 03:56:13;;;;;;;0.10;0.10;;;;;;;;;;5105066;28;20179;-45
2023/09/15 03:58:39;;;;;;;0.10;0.10;;;;;;;;;;5095675;28;20188;-42
2023/09/15 04:01:09;;;;;;;0.10;0.10;;;;;;;;;;5107326;28;20067;-43
2023/09/15 04:03:34;;;;;;;0.15;0.15;;;;;;;;;;5106659;28;20040;-42
2023/09/15 04:06:00;;;;;;;0.10;0.10;;;;;;;;;;5106781;28;20044;-43
2023/09/15 04:08:26;;;;;;;0.10;0.10;;;;;;;;;;5107507;28;20563;-41
2023/09/15 04:10:51;;;;;;;0.10;0.10;;;;;;;;;;5108378;28;20051;-42
2023/09/15 04:13:17;;;;;;;0.10;0.10;;;;;;;;;;5106803;28;20069;-42
2023/09/15 04:15:42;;;;;;;0.10;0.10;;;;;;;;;;5107532;28;20061;-43
2023/09/15 04:18:08;;;;;;;0.10;0.10;;;;;;;;;;5107555;28;20429;-42
2023/09/15 04:20:34;;;;;;;0.10;0.10;;;;;;;;;;5106512;28;20112;-43
2023/09/15 04:23:11;;;;;;;0.10;0.10;;;;;;;;;;5105920;28;20043;-42
2023/09/15 04:25:37;;;;;;;0.10;0.10;;;;;;;;;;5107457;28;20062;-41
2023/09/15 04:28:02;;;;;;;0.10;0.10;;;;;;;;;;5106900;28;20059;-43
2023/09/15 04:30:28;;;;;;;0.10;0.10;;;;;;;;;;5107006;28;20134;-42
2023/09/15 04:32:55;;;;;;;0.10;0.10;;;;;;;;;;5106309;28;20078;-43
2023/09/15 04:35:20;;;;;;;0.10;0.10;;;;;;;;;;5106408;28;20492;-44
2023/09/15 04:37:46;;;;;;;0.10;0.10;;;;;;;;;;5106635;28;20047;-43
2023/09/15 04:40:12;;;;;;;0.10;0.10;;;;;;;;;;5105258;28;20057;-46
2023/09/15 04:42:40;;;;;;;0.20;0.20;;;;;;;;;;5092566;28;20608;-41
2023/09/15 04:45:05;;;;;;;0.10;0.10;;;;;;;;;;5105754;28;20347;-42
2023/09/15 04:47:33;;;;;;;0.10;0.10;;;;;;;;;;5104799;28;20047;-42
2023/09/15 04:49:59;;;;;;;0.10;0.10;;;;;;;;;;5096040;28;20138;-43
2023/09/15 04:52:24;;;;;;;0.10;0.10;;;;;;;;;;5101350;28;20538;-43
2023/09/15 04:54:50;;;;;;;0.10;0.10;;;;;;;;;;5102444;28;20117;-42
2023/09/15 04:57:16;;;;;;;0.10;0.10;;;;;;;;;;5105918;28;20488;-43
2023/09/15 04:59:41;;;;;;;0.10;0.10;;;;;;;;;;5102947;28;20073;-42
2023/09/15 05:02:07;;;;;;;0.10;0.10;;;;;;;;;;5104844;28;20424;-43
2023/09/15 05:04:33;;;;;;;0.10;0.10;;;;;;;;;;5105740;28;20044;-45
2023/09/15 05:06:58;;;;;;;0.10;0.10;;;;;;;;;;5101420;28;20046;-42
2023/09/15 05:09:24;;;;;;;0.10;0.10;;;;;;;;;;5101597;28;20099;-42
2023/09/15 05:11:52;;;;;;;0.10;0.10;;;;;;;;;;5100684;28;20111;-42
2023/09/15 05:14:18;;;;;;;0.10;0.10;;;;;;;;;;5104294;28;20344;-42
2023/09/15 05:16:43;;;;;;;0.10;0.10;;;;;;;;;;5099039;28;20141;-42
2023/09/15 05:19:09;;;;;;;0.10;0.10;;;;;;;;;;5103888;28;20543;-42
2023/09/15 05:21:35;;;;;;;0.10;0.10;;;;;;;;;;5102033;28;20093;-41
2023/09/15 05:24:01;;;;;;;0.10;0.10;;;;;;;;;;5097074;28;20048;-43
2023/09/15 05:26:27;;;;;;;0.10;0.10;;;;;;;;;;5091308;28;20051;-42
2023/09/15 05:28:52;;;;;;;0.10;0.10;;;;;;;;;;5099282;28;20781;-42
2023/09/15 05:31:20;;;;;;;0.10;0.10;;;;;;;;;;5097490;28;20417;-42
2023/09/15 05:33:45;;;;;;;0.00;0.00;;;;;;;;;;5099313;28;20043;-41
2023/09/15 05:36:11;;;;;;;0.10;0.10;;;;;;;;;;5100607;28;20062;-41
2023/09/15 05:38:37;;;;;;;0.10;0.10;;;;;;;;;;5097116;28;20142;-42
2023/09/15 05:41:03;;;;;;;0.10;0.10;;;;;;;;;;5099820;28;20046;-43
2023/09/15 05:43:28;;;;;;;0.10;0.10;;;;;;;;;;5100051;28;20063;-42
2023/09/15 05:45:56;;;;;;;0.10;0.10;;;;;;;;;;5103405;28;20047;-41
2023/09/15 05:48:23;;;;;;;0.10;0.10;;;;;;;;;;5093585;28;20043;-42
2023/09/15 05:50:49;;;;;;;0.10;0.10;;;;;;;;;;5104161;28;20066;-42
2023/09/15 05:53:15;;;;;;;0.20;0.20;;;;;;;;;;5094752;28;20048;-42
2023/09/15 05:55:40;;;;;;;0.10;0.10;;;;;;;;;;5093360;28;20056;-43
2023/09/15 05:58:06;;;;;;;0.10;0.10;;;;;;;;;;5090669;28;20365;-42
2023/09/15 06:00:32;;;;;;;0.10;0.10;;;;;;;;;;5087293;28;20130;-42
2023/09/15 06:02:58;;;;;;;0.10;0.10;;;;;;;;;;5077368;28;20108;-42
2023/09/15 06:05:25;;;;;;;0.10;0.10;;;;;;;;;;5075919;28;20123;-42
2023/09/15 06:07:51;;;;;;;0.10;0.10;;;;;;;;;;5089446;28;20052;-44
2023/09/15 06:10:17;;;;;;;0.10;0.10;;;;;;;;;;5089998;28;20052;-43
2023/09/15 06:12:43;;;;;;;0.10;0.10;;;;;;;;;;5091412;28;20066;-43
2023/09/15 06:15:09;;;;;;;0.10;0.10;;;;;;;;;;5095071;28;20040;-43
2023/09/15 06:17:35;;;;;;;0.10;0.10;;;;;;;;;;5097675;28;20040;-44
2023/09/15 06:20:01;;;;;;;0.10;0.10;;;;;;;;;;5097493;28;20190;-41
2023/09/15 06:22:26;;;;;;;0.10;0.10;;;;;;;;;;5097792;28;20051;-42
2023/09/15 06:24:52;;;;;;;0.10;0.10;;;;;;;;;;5098161;28;20047;-43
2023/09/15 06:27:18;;;;;;;0.10;0.10;;;;;;;;;;5100772;28;20400;-43
2023/09/15 06:29:44;;;;;;;0.10;0.10;;;;;;;;;;5093768;28;20359;-42
2023/09/15 06:32:09;;;;;;;0.10;0.10;;;;;;;;;;5096182;28;20040;-44
2023/09/15 06:34:35;;;;;;;0.10;0.10;;;;;;;;;;5096641;28;20055;-42
2023/09/15 06:37:04;;;;;;;0.10;0.10;;;;;;;;;;5100042;28;20059;-42
2023/09/15 06:39:30;;;;;;;0.10;0.10;;;;;;;;;;5094624;28;20050;-43
2023/09/15 06:41:55;;;;;;;0.10;0.10;;;;;;;;;;5089679;28;20044;-42
2023/09/15 06:44:21;;;;;;;0.10;0.10;;;;;;;;;;5081058;28;20491;-42
2023/09/15 06:46:46;;;;;;;0.10;0.10;;;;;;;;;;5088840;28;20040;-42
2023/09/15 06:49:12;;;;;;;0.10;0.10;;;;;;;;;;5090647;28;20140;-41
2023/09/15 06:51:38;;;;;;;0.10;0.10;;;;;;;;;;5084195;28;20497;-42
2023/09/15 06:54:04;;;;;;;0.10;0.10;;;;;;;;;;5084157;28;20172;-49
2023/09/15 06:56:30;;;;;;;0.10;0.10;;;;;;;;;;5066185;28;20048;-43
2023/09/15 06:58:55;;;;;;;0.10;0.10;;;;;;;;;;5081104;28;21560;-41
2023/09/15 07:01:21;;;;;;;0.10;0.10;;;;;;;;;;5080318;28;20050;-42
2023/09/15 07:03:46;;;;;;;0.10;0.10;;;;;;;;;;5077013;28;20043;-42
2023/09/15 07:06:13;;;;;;;0.10;0.10;;;;;;;;;;5072752;28;20052;-43
2023/09/15 07:08:39;;;;;;;0.10;0.10;;;;;;;;;;5066256;28;20051;-42
2023/09/15 07:11:05;;;;;;;0.10;0.10;;;;;;;;;;5057754;28;20055;-42
2023/09/15 07:13:30;;;;;;;0.10;0.10;;;;;;;;;;5087254;28;20517;-42
2023/09/15 07:15:56;;;;;;;0.10;0.10;;;;;;;;;;5079476;28;20412;-43
2023/09/15 07:18:22;;;;;;;0.10;0.10;;;;;;;;;;5086949;28;20539;-42
2023/09/15 07:20:47;;;;;;;0.10;0.10;;;;;;;;;;5092522;28;20059;-42
2023/09/15 07:23:13;;;;;;;0.10;0.10;;;;;;;;;;5102417;28;20051;-43
2023/09/15 07:25:38;;;;;;;0.10;0.10;;;;;;;;;;5091998;28;20110;-43
2023/09/15 07:28:04;;;;;;;0.10;0.10;;;;;;;;;;5083806;28;20055;-44
2023/09/15 07:30:30;;;;;;;0.10;0.10;;;;;;;;;;5088776;28;20317;-45
2023/09/15 07:32:56;;;;;;;0.10;0.10;;;;;;;;;;5096248;28;20293;-42
2023/09/15 07:35:22;;;;;;;0.10;0.10;;;;;;;;;;5093656;28;20096;-41
2023/09/15 07:37:48;;;;;;;0.10;0.10;;;;;;;;;;5097136;28;20515;-42
2023/09/15 07:40:13;;;;;;;0.10;0.10;;;;;;;;;;5101111;28;20031;-43
2023/09/15 07:42:40;;;;;;;0.10;0.10;;;;;;;;;;5100244;28;20047;-43
2023/09/15 07:45:06;;;;;;;0.10;0.10;;;;;;;;;;5098061;28;20407;-43
2023/09/15 07:47:33;;;;;;;0.10;0.10;;;;;;;;;;5096800;28;20891;-44
2023/09/15 07:49:58;;;;;;;0.10;0.10;;;;;;;;;;5096788;28;20051;-42
2023/09/15 07:52:25;;;;;;;0.10;0.10;;;;;;;;;;5095751;28;20044;-42
2023/09/15 07:54:50;;;;;;;0.10;0.10;;;;;;;;;;5100141;28;20516;-42
2023/09/15 07:57:16;;;;;;;0.10;0.10;;;;;;;;;;5099936;28;20054;-42
2023/09/15 07:59:41;;;;;;;0.10;0.10;;;;;;;;;;5087383;28;20134;-42
2023/09/15 08:02:07;;;;;;;0.10;0.10;;;;;;;;;;5094248;28;20046;-41
2023/09/15 08:04:33;;;;;;;0.10;0.10;;;;;;;;;;5087292;28;20342;-42
2023/09/15 08:06:58;;;;;;;0.10;0.10;;;;;;;;;;5076038;28;20317;-44
2023/09/15 08:09:24;;;;;;;0.10;0.10;;;;;;;;;;5079302;28;20051;-42
2023/09/15 08:11:50;;;;;;;0.10;0.10;;;;;;;;;;5079432;28;20542;-44
2023/09/15 08:14:16;;;;;;;0.10;0.10;;;;;;;;;;5084731;28;20035;-45
2023/09/15 08:16:41;;;;;;;0.10;0.10;;;;;;;;;;5087136;28;20047;-42
2023/09/15 08:19:07;;;;;;;0.10;0.10;;;;;;;;;;5083147;28;20489;-42
2023/09/15 08:21:33;;;;;;;0.10;0.10;;;;;;;;;;5079044;28;20043;-42
2023/09/15 08:23:58;;;;;;;0.10;0.10;;;;;;;;;;5089779;28;20822;-42
2023/09/15 08:26:25;;;;;;;0.10;0.10;;;;;;;;;;5086172;28;20444;-41
2023/09/15 08:29:01;;;;;;;0.10;0.10;;;;;;;;;;5083853;28;20427;-42
2023/09/15 08:31:28;;;;;;;0.10;0.10;;;;;;;;;;5079785;28;20319;-41
2023/09/15 08:33:54;;;;;;;0.00;0.00;;;;;;;;;;5070476;28;20192;-42
2023/09/15 08:36:20;;;;;;;0.10;0.10;;;;;;;;;;5072795;28;20522;-41
2023/09/15 08:38:45;;;;;;;0.10;0.10;;;;;;;;;;5072273;28;20744;-41
2023/09/15 08:41:16;;;;;;;0.10;0.10;;;;;;;;;;5082524;28;20166;-42
2023/09/15 08:43:42;;;;;;;0.10;0.10;;;;;;;;;;5082811;28;20047;-43
2023/09/15 08:46:08;;;;;;;0.10;0.10;;;;;;;;;;5090567;28;20133;-42
2023/09/15 08:48:38;;;;;;;0.10;0.10;;;;;;;;;;5066072;28;20315;-45
2023/09/15 08:51:04;;;;;;;0.10;0.10;;;;;;;;;;5082362;28;20045;-42
2023/09/15 08:53:30;;;;;;;0.10;0.10;;;;;;;;;;5081260;28;20050;-42
2023/09/15 08:55:56;;;;;;;0.10;0.10;;;;;;;;;;5080559;28;20075;-42
2023/09/15 08:58:22;;;;;;;0.10;0.10;;;;;;;;;;5084540;28;20050;-42
2023/09/15 09:00:48;;;;;;;0.10;0.10;;;;;;;;;;5082432;28;20402;-43
2023/09/15 09:03:14;;;;;;;0.10;0.10;;;;;;;;;;5081203;28;20040;-43
2023/09/15 09:05:45;;;;;;;0.10;0.10;;;;;;;;;;5030356;28;20417;-43
2023/09/15 09:08:11;;;;;;;0.10;0.10;;;;;;;;;;5024792;28;20092;-41
2023/09/15 09:10:37;;;;;;;0.10;0.10;;;;;;;;;;5022994;28;20378;-43
2023/09/15 09:13:02;;;;;;;0.10;0.10;;;;;;;;;;5025792;28;20837;-43
2023/09/15 09:15:31;;;;;;;0.10;0.10;;;;;;;;;;5026630;28;20048;-41
2023/09/15 09:17:57;;;;;;;0.10;0.10;;;;;;;;;;5011522;28;20085;-43
2023/09/15 09:20:23;;;;;;;0.10;0.10;;;;;;;;;;5022165;28;20048;-44
2023/09/15 09:22:49;;;;;;;0.10;0.10;;;;;;;;;;5024731;28;20459;-44
2023/09/15 09:25:14;;;;;;;0.10;0.10;;;;;;;;;;5022487;28;20547;-41
2023/09/15 09:27:40;;;;;;;0.10;0.10;;;;;;;;;;5022095;28;20658;-42
2023/09/15 09:30:06;;;;;;;0.10;0.10;;;;;;;;;;5024481;28;20050;-42
2023/09/15 09:32:35;;;;;;;0.10;0.10;;;;;;;;;;5017095;28;20764;-41
2023/09/15 09:35:01;;;;;;;0.10;0.10;;;;;;;;;;5009881;28;20047;-42
2023/09/15 09:37:26;;;;;;;0.10;0.10;;;;;;;;;;5005317;28;20089;-43
2023/09/15 09:39:53;;;;;;;0.10;0.10;;;;;;;;;;5061295;28;20229;-44
2023/09/15 09:42:21;;;;;;;0.10;0.10;;;;;;;;;;5076468;28;20051;-43
2023/09/15 09:44:47;;;;;;;0.10;0.10;;;;;;;;;;5050694;28;20051;-42
2023/09/15 09:47:12;;;;;;;0.10;0.10;;;;;;;;;;5020002;28;20043;-41
2023/09/15 09:49:39;;;;;;;0.10;0.10;;;;;;;;;;5066926;28;20047;-43
2023/09/15 09:52:05;;;;;;;0.10;0.10;;;;;;;;;;5087393;28;20043;-42
2023/09/15 09:54:33;;;;;;;0.17;0.17;;;;;;;;;;5089371;28;20112;-41
2023/09/15 09:56:59;;;;;;;0.10;0.10;;;;;;;;;;5089659;28;20242;-43
2023/09/15 09:59:26;;;;;;;0.10;0.10;;;;;;;;;;5090332;28;20078;-42
2023/09/15 10:01:52;;;;;;;0.10;0.10;;;;;;;;;;5094874;28;20400;-42
2023/09/15 10:04:20;;;;;;;0.10;0.10;;;;;;;;;;5085533;28;20047;-42
2023/09/15 10:06:45;;;;;;;0.10;0.10;;;;;;;;;;5095833;28;20173;-43
2023/09/15 10:09:14;;;;;;;0.10;0.10;;;;;;;;;;5093125;28;20047;-42
2023/09/15 10:11:39;;;;;;;;;;;;;;;;;;5089965;28;20267;-42
2023/09/15 10:14:05;;;;;;;0.10;0.10;;;;;;;;;;5089233;28;20330;-43
2023/09/15 10:16:31;;;;;;;0.20;0.20;;;;;;;;;;5091463;28;20047;-44
2023/09/15 10:18:58;;;;;;;0.10;0.10;;;;;;;;;;5090834;28;20048;-45
2023/09/15 10:21:27;;;;;;;0.10;0.10;;;;;;;;;;5087585;28;20051;-45
2023/09/15 10:24:00;;;;;;;0.10;0.10;;;;;;;;;;5089739;28;20424;-45
2023/09/15 10:26:26;;;;;;;0.10;0.10;;;;;;;;;;5090225;28;20051;-45
2023/09/15 10:28:51;;;;;;;0.10;0.10;;;;;;;;;;5087162;28;20051;-44
2023/09/15 10:31:18;;;;;;;0.10;0.10;;;;;;;;;;5094507;28;20101;-42
2023/09/15 10:33:43;;;;;;;0.10;0.10;;;;;;;;;;5094245;28;20051;-46
2023/09/15 10:36:12;;;;;;;0.10;0.10;;;;;;;;;;5091356;28;21444;-43
2023/09/15 10:38:37;;;;;;;0.10;0.10;;;;;;;;;;5078497;28;20452;-42
2023/09/15 10:41:06;;;;;;;0.10;0.10;;;;;;;;;;5083757;28;20052;-42
2023/09/15 10:43:32;;;;;;;0.10;0.10;;;;;;;;;;5081962;28;20082;-42
2023/09/15 10:46:02;;;;;;;0.10;0.10;;;;;;;;;;5070992;28;20527;-42
2023/09/15 10:48:46;;;;;;;0.10;0.10;;;;;;;;;;5076501;28;20047;-44
2023/09/15 10:51:14;;;;;;;0.10;0.10;;;;;;;;;;5084208;28;20051;-42
2023/09/15 10:53:43;;;;;;;0.10;0.10;;;;;;;;;;5085173;28;20039;-46
2023/09/15 10:56:09;;;;;;;0.10;0.10;;;;;;;;;;5078511;28;20071;-46
2023/09/15 10:58:37;;;;;;;;;;;;;;;;;;5057031;28;20292;-46
2023/09/15 11:01:03;;;;;;;0.10;0.10;;;;;;;;;;5089946;28;20308;-44
2023/09/15 11:03:28;;;;;;;0.10;0.10;;;;;;;;;;5091801;28;20043;-44
2023/09/15 11:05:55;;;;;;;0.10;0.10;;;;;;;;;;5089365;28;20396;-45
2023/09/15 11:08:21;;;;;;;0.10;0.10;;;;;;;;;;5088841;28;20124;-43
2023/09/15 11:10:46;;;;;;;0.10;0.10;;;;;;;;;;5080266;28;20071;-45
2023/09/15 11:13:12;;;;;;;0.10;0.10;;;;;;;;;;5076697;28;20043;-46
2023/09/15 11:15:37;;;;;;;0.10;0.10;;;;;;;;;;5035625;28;20063;-43
2023/09/15 11:18:04;;;;;;;0.10;0.10;;;;;;;;;;5033595;28;24419;-42
2023/09/15 11:20:30;;;;;;;0.10;0.10;;;;;;;;;;5053103;28;20816;-42
2023/09/15 11:22:56;;;;;;;0.10;0.10;;;;;;;;;;5075760;28;20134;-43
2023/09/15 11:25:21;;;;;;;0.10;0.10;;;;;;;;;;5092788;28;20520;-45
2023/09/15 11:27:48;;;;;;;0.10;0.10;;;;;;;;;;5094306;28;20048;-47
2023/09/15 11:30:13;;;;;;;0.10;0.10;;;;;;;;;;5089223;28;20051;-46
2023/09/15 11:32:39;;;;;;;0.00;0.00;;;;;;;;;;5087685;28;20089;-45
2023/09/15 11:35:05;;;;;;;0.10;0.10;;;;;;;;;;5095697;28;20060;-43
2023/09/15 11:37:31;;;;;;;0.10;0.10;;;;;;;;;;5087789;28;20561;-44
2023/09/15 11:39:56;;;;;;;0.10;0.10;;;;;;;;;;5088284;28;20039;-42
2023/09/15 11:42:22;;;;;;;0.10;0.10;;;;;;;;;;5081242;28;20043;-42
2023/09/15 11:44:48;;;;;;;0.10;0.10;;;;;;;;;;5083642;28;20092;-44
2023/09/15 11:47:13;;;;;;;0.10;0.10;;;;;;;;;;5083951;28;20486;-43
2023/09/15 11:49:39;;;;;;;0.10;0.10;;;;;;;;;;5076414;28;20419;-47
2023/09/15 11:52:05;;;;;;;0.10;0.10;;;;;;;;;;5078147;28;20048;-43
2023/09/15 11:54:31;;;;;;;0.10;0.10;;;;;;;;;;5088398;28;20044;-45
2023/09/15 11:56:57;;;;;;;0.10;0.10;;;;;;;;;;5090328;28;20120;-43
2023/09/15 11:59:23;;;;;;;0.10;0.10;;;;;;;;;;5088629;28;20051;-43
2023/09/15 12:01:52;;;;;;;0.10;0.10;;;;;;;;;;5097466;28;20170;-47
2023/09/15 12:04:17;;;;;;;0.10;0.10;;;;;;;;;;5092108;28;20096;-44
2023/09/15 12:06:45;;;;;;;0.10;0.10;;;;;;;;;;5092036;28;20457;-46
2023/09/15 12:09:12;;;;;;;0.10;0.10;;;;;;;;;;5092076;28;20695;-44
2023/09/15 12:11:41;;;;;;;0.10;0.10;;;;;;;;;;5087550;28;20051;-43
2023/09/15 12:14:07;;;;;;;0.10;0.10;;;;;;;;;;5093729;28;20112;-45
2023/09/15 12:16:36;;;;;;;0.10;0.10;;;;;;;;;;5092542;28;20590;-45
2023/09/15 12:19:02;;;;;;;0.10;0.10;;;;;;;;;;5097520;28;20298;-42
2023/09/15 12:21:28;;;;;;;0.10;0.10;;;;;;;;;;5100405;28;20086;-47
2023/09/15 12:23:54;;;;;;;0.10;0.10;;;;;;;;;;5101058;28;20130;-46
2023/09/15 12:26:21;;;;;;;0.10;0.10;;;;;;;;;;5093128;28;20569;-47
2023/09/15 12:28:47;;;;;;;0.10;0.10;;;;;;;;;;5092574;28;20043;-45
2023/09/15 12:31:15;;;;;;;0.10;0.10;;;;;;;;;;5098469;28;20555;-45
2023/09/15 12:33:42;;;;;;;0.10;0.10;;;;;;;;;;5100939;28;20530;-46
2023/09/15 12:36:09;;;;;;;0.10;0.10;;;;;;;;;;5099905;28;20048;-47
2023/09/15 12:38:35;;;;;;;0.00;0.00;;;;;;;;;;5099216;28;20047;-43
2023/09/15 12:41:00;;;;;;;0.10;0.10;;;;;;;;;;5097370;28;20055;-45
2023/09/15 12:43:26;;;;;;;0.10;0.10;;;;;;;;;;5100640;28;20079;-45
2023/09/15 12:45:53;;;;;;;0.10;0.10;;;;;;;;;;5103706;28;20060;-45
2023/09/15 12:48:19;;;;;;;0.00;0.00;;;;;;;;;;5100766;28;20048;-42
2023/09/15 12:50:45;;;;;;;0.10;0.10;;;;;;;;;;5100586;28;20120;-43
2023/09/15 12:53:11;;;;;;;0.10;0.10;;;;;;;;;;5101166;28;20481;-46
2023/09/15 12:55:36;;;;;;;0.10;0.10;;;;;;;;;;5102019;28;20069;-42
2023/09/15 12:58:02;;;;;;;0.10;0.10;;;;;;;;;;5098757;28;20050;-44
2023/09/15 13:00:28;;;;;;;0.10;0.10;;;;;;;;;;5100342;28;20537;-46
2023/09/15 13:02:53;;;;;;;0.10;0.10;;;;;;;;;;5097343;28;20051;-44
2023/09/15 13:05:19;;;;;;;0.10;0.10;;;;;;;;;;5097174;28;20043;-45
2023/09/15 13:07:45;;;;;;;0.10;0.10;;;;;;;;;;5097937;28;20069;-43
2023/09/15 13:10:11;;;;;;;0.10;0.10;;;;;;;;;;5102281;28;20096;-43
2023/09/15 13:12:36;;;;;;;0.10;0.10;;;;;;;;;;5102427;28;20055;-41
2023/09/15 13:15:03;;;;;;;0.10;0.10;;;;;;;;;;5102359;28;20054;-43
2023/09/15 13:17:28;;;;;;;0.10;0.10;;;;;;;;;;5088123;28;20044;-45
2023/09/15 13:19:55;;;;;;;0.10;0.10;;;;;;;;;;5099339;28;20646;-47
2023/09/15 13:22:22;;;;;;;0.10;0.10;;;;;;;;;;5101494;28;20040;-43
2023/09/15 13:24:48;;;;;;;0.10;0.10;;;;;;;;;;5102146;28;20473;-45
2023/09/15 13:27:13;;;;;;;0.10;0.10;;;;;;;;;;5102026;28;20472;-45
2023/09/15 13:29:39;;;;;;;0.10;0.10;;;;;;;;;;5101454;28;20055;-42
2023/09/15 13:32:04;;;;;;;0.10;0.10;;;;;;;;;;5103609;28;20043;-44
2023/09/15 13:34:30;;;;;;;0.10;0.10;;;;;;;;;;5102531;28;20051;-45
2023/09/15 13:36:56;;;;;;;0.10;0.10;;;;;;;;;;5102719;28;20059;-46
2023/09/15 13:39:23;;;;;;;0.10;0.10;;;;;;;;;;5102124;28;20054;-42
2023/09/15 13:41:49;;;;;;;0.10;0.10;;;;;;;;;;5104451;28;20470;-43
2023/09/15 13:44:14;;;;;;;0.10;0.10;;;;;;;;;;5102727;28;20050;-45
2023/09/15 13:46:41;;;;;;;0.10;0.10;;;;;;;;;;5103241;28;20035;-46
2023/09/15 13:49:06;;;;;;;0.10;0.10;;;;;;;;;;5100854;28;20097;-42
2023/09/15 13:51:32;;;;;;;0.10;0.10;;;;;;;;;;5087040;28;20048;-43
2023/09/15 13:54:08;;;;;;;0.10;0.10;;;;;;;;;;5100848;28;20050;-46
2023/09/15 13:56:33;;;;;;;0.10;0.10;;;;;;;;;;5095569;28;20059;-45
2023/09/15 13:58:59;;;;;;;0.10;0.10;;;;;;;;;;5100453;28;20051;-43
2023/09/15 14:01:27;;;;;;;0.10;0.10;;;;;;;;;;5102865;28;20134;-47
2023/09/15 14:03:52;;;;;;;0.10;0.10;;;;;;;;;;5101798;28;20052;-45
2023/09/15 14:06:18;;;;;;;0.10;0.10;;;;;;;;;;5101515;28;20055;-43
2023/09/15 14:08:43;;;;;;;0.10;0.10;;;;;;;;;;5100089;28;20196;-46
2023/09/15 14:11:10;;;;;;;0.10;0.10;;;;;;;;;;5101837;28;20600;-43
2023/09/15 14:13:35;;;;;;;0.10;0.10;;;;;;;;;;5103131;28;20089;-45
2023/09/15 14:16:02;;;;;;;0.10;0.10;;;;;;;;;;5102106;28;20040;-45
2023/09/15 14:18:28;;;;;;;0.10;0.10;;;;;;;;;;5100222;28;20067;-43
2023/09/15 14:20:54;;;;;;;0.10;0.10;;;;;;;;;;5102232;28;20466;-44
2023/09/15 14:23:19;;;;;;;0.10;0.10;;;;;;;;;;5101376;28;20323;-42
2023/09/15 14:25:45;;;;;;;0.10;0.10;;;;;;;;;;5102069;28;20051;-45
2023/09/15 14:28:11;;;;;;;0.10;0.10;;;;;;;;;;5100483;28;20407;-42
2023/09/15 14:30:38;;;;;;;0.10;0.10;;;;;;;;;;5101945;28;20044;-43
2023/09/15 14:33:03;;;;;;;0.10;0.10;;;;;;;;;;5102307;28;20043;-42
2023/09/15 14:35:29;;;;;;;0.10;0.10;;;;;;;;;;5103174;28;20109;-46
2023/09/15 14:37:55;;;;;;;0.10;0.10;;;;;;;;;;5101530;28;20565;-42